createdAt,value
2022-08-20T00:03:08.050Z,1004.927
2022-08-20T00:23:11.355Z,1004.899
2022-08-20T00:43:07.177Z,1005.067
2022-08-20T01:03:09.573Z,1005.165
2022-08-20T01:23:07.552Z,1005.208
2022-08-20T01:43:07.532Z,1005.327
2022-08-20T02:03:08.311Z,1005.274
2022-08-20T02:23:07.155Z,1005.372
2022-08-20T02:43:08.128Z,1005.331
2022-08-20T03:03:08.853Z,1005.335
2022-08-20T03:23:07.142Z,1005.372
2022-08-20T03:43:08.150Z,1005.273
2022-08-20T04:03:09.057Z,1005.335
2022-08-20T04:23:07.791Z,1005.632
2022-08-20T04:43:07.942Z,1005.799
2022-08-20T05:03:08.075Z,1005.949
2022-08-20T05:23:07.842Z,1006.012
2022-08-20T05:43:07.799Z,1006.164
2022-08-20T06:03:08.733Z,1006.236
2022-08-20T06:23:07.730Z,1006.197
2022-08-20T06:43:07.795Z,1006.192
2022-08-20T07:03:08.486Z,1006.349
2022-08-20T07:23:07.296Z,1006.385
2022-08-20T07:43:09.511Z,1006.375
2022-08-20T08:03:08.481Z,1006.549
2022-08-20T08:23:07.361Z,1006.62
2022-08-20T08:43:07.587Z,1006.634
2022-08-20T09:03:08.567Z,1006.786
2022-08-20T09:23:07.337Z,1006.77
2022-08-20T09:43:07.337Z,1006.879
2022-08-20T10:03:08.136Z,1006.885
2022-08-20T10:23:07.871Z,1007.05
2022-08-20T10:43:07.908Z,1006.989
2022-08-20T11:03:08.774Z,1007.042
2022-08-20T11:23:07.558Z,1006.973
2022-08-20T11:43:18.724Z,1006.944
2022-08-20T12:03:11.793Z,1006.905
2022-08-20T12:23:07.827Z,1006.978
2022-08-20T12:43:07.969Z,1006.762
2022-08-20T13:03:08.879Z,1006.754
2022-08-20T13:23:07.649Z,1006.734
2022-08-20T13:43:12.735Z,1006.616
2022-08-20T14:03:08.673Z,1006.761
2022-08-20T14:23:07.400Z,1007.076
2022-08-20T14:43:07.490Z,1007.383
2022-08-20T15:03:08.499Z,1007.326
2022-08-20T15:23:07.409Z,1007.197
2022-08-20T15:43:07.624Z,1007.122
2022-08-20T16:03:08.493Z,1007.237
2022-08-20T16:23:07.276Z,1007.28
2022-08-20T16:43:07.288Z,1007.408
2022-08-20T17:03:08.354Z,1007.371
2022-08-20T17:23:07.208Z,1007.406
2022-08-20T17:43:07.284Z,1007.417
2022-08-20T18:03:08.176Z,1007.491
2022-08-20T18:23:08.146Z,1007.643
2022-08-20T18:43:07.453Z,1007.697
2022-08-20T19:03:08.328Z,1007.895
2022-08-20T19:23:07.250Z,1007.899
2022-08-20T19:43:07.309Z,1007.997
2022-08-20T20:03:08.237Z,1008.034
2022-08-20T20:23:08.308Z,1007.858
2022-08-20T20:43:07.494Z,1007.858
2022-08-20T21:03:08.386Z,1007.845
2022-08-20T21:23:07.313Z,1007.852
2022-08-20T21:43:07.405Z,1007.933
2022-08-20T22:03:13.335Z,1007.887
2022-08-20T22:23:08.009Z,1007.883
2022-08-20T22:43:07.776Z,1007.926
2022-08-20T23:03:08.425Z,1007.838
2022-08-20T23:23:07.175Z,1007.812
2022-08-20T23:43:07.959Z,1007.685
